createdAt,value
2023-04-20T00:00:28.131Z,16.70
2023-04-20T00:02:55.717Z,17.08
2023-04-20T00:05:23.828Z,16.75
2023-04-20T00:07:51.757Z,16.58
2023-04-20T00:10:19.130Z,16.52
2023-04-20T00:12:46.532Z,15.07
2023-04-20T00:15:14.001Z,15.32
2023-04-20T00:17:41.478Z,13.73
2023-04-20T00:20:10.061Z,14.10
2023-04-20T00:22:37.511Z,12.93
2023-04-20T00:25:05.638Z,13.20
2023-04-20T00:27:33.096Z,12.32
2023-04-20T00:30:00.465Z,11.38
2023-04-20T00:32:28.460Z,11.85
2023-04-20T00:34:56.343Z,12.07
2023-04-20T00:37:25.713Z,11.95
2023-04-20T00:39:57.375Z,10.82
2023-04-20T00:42:25.408Z,10.77
2023-04-20T00:44:52.877Z,11.27
2023-04-20T00:47:20.461Z,9.80
2023-04-20T00:49:48.401Z,9.88
2023-04-20T00:52:16.008Z,9.63
2023-04-20T00:54:43.607Z,9.63
2023-04-20T00:57:14.248Z,9.60
2023-04-20T00:59:41.975Z,10.13
2023-04-20T01:02:09.518Z,10.13
2023-04-20T01:04:37.455Z,9.20
2023-04-20T01:07:05.732Z,9.43
2023-04-20T01:09:33.128Z,10.05
2023-04-20T01:12:01.513Z,10.15
2023-04-20T01:14:28.953Z,9.63
2023-04-20T01:16:57.261Z,9.98
2023-04-20T01:19:24.942Z,8.73
2023-04-20T01:21:52.787Z,9.80
2023-04-20T01:24:20.285Z,9.77
2023-04-20T01:26:48.812Z,9.38
2023-04-20T01:29:16.448Z,10.38
2023-04-20T01:31:44.023Z,8.60
2023-04-20T01:34:11.413Z,9.45
2023-04-20T01:36:39.537Z,9.82
2023-04-20T01:39:08.691Z,11.13
2023-04-20T01:41:36.337Z,10.40
2023-04-20T01:44:03.731Z,10.68
2023-04-20T01:46:31.737Z,9.75
2023-04-20T01:48:59.154Z,9.60
2023-04-20T01:51:26.532Z,10.07
2023-04-20T01:53:54.792Z,9.50
2023-04-20T01:56:22.229Z,8.55
2023-04-20T01:58:50.257Z,10.32
2023-04-20T02:01:17.889Z,9.23
2023-04-20T02:03:45.619Z,9.05
2023-04-20T02:06:13.870Z,9.45
2023-04-20T02:08:41.258Z,8.70
2023-04-20T02:11:08.800Z,9.68
2023-04-20T02:13:36.363Z,9.93
2023-04-20T02:16:03.945Z,10.00
2023-04-20T02:18:32.905Z,9.18
2023-04-20T02:21:01.620Z,9.85
2023-04-20T02:23:29.122Z,8.52
2023-04-20T02:25:56.543Z,10.10
2023-04-20T02:28:23.947Z,9.00
2023-04-20T02:30:51.446Z,10.10
2023-04-20T02:33:21.123Z,9.65
2023-04-20T02:35:48.836Z,10.38
2023-04-20T02:38:16.716Z,9.27
2023-04-20T02:40:44.142Z,9.30
2023-04-20T02:43:11.821Z,10.00
2023-04-20T02:45:40.490Z,8.88
2023-04-20T02:48:09.426Z,8.52
2023-04-20T02:50:38.411Z,8.98
2023-04-20T02:53:16.316Z,9.88
2023-04-20T02:55:47.191Z,9.48
2023-04-20T02:58:25.511Z,10.27
2023-04-20T03:01:11.371Z,11.23
2023-04-20T03:03:39.820Z,10.50
2023-04-20T03:06:11.988Z,11.55
2023-04-20T03:08:42.254Z,11.07
2023-04-20T03:11:29.644Z,11.07
2023-04-20T03:13:57.650Z,10.63
2023-04-20T03:16:25.098Z,10.38
2023-04-20T03:18:55.433Z,10.90
2023-04-20T03:21:22.908Z,11.35
2023-04-20T03:23:50.488Z,10.98
2023-04-20T03:26:18.631Z,11.63
2023-04-20T03:29:12.637Z,11.80
2023-04-20T03:31:40.676Z,12.68
2023-04-20T03:34:09.785Z,12.27
2023-04-20T03:36:37.431Z,10.75
2023-04-20T03:39:05.222Z,10.45
2023-04-20T03:41:32.748Z,11.32
2023-04-20T03:44:00.822Z,10.40
2023-04-20T03:46:28.650Z,10.63
2023-04-20T03:48:56.120Z,10.52
2023-04-20T03:51:24.198Z,10.45
2023-04-20T03:53:51.691Z,10.35
2023-04-20T03:56:19.116Z,10.30
2023-04-20T03:58:46.577Z,10.13
2023-04-20T04:01:18.418Z,10.20
2023-04-20T04:03:48.978Z,10.73
2023-04-20T04:06:17.691Z,10.77
2023-04-20T04:08:45.272Z,11.32
2023-04-20T04:11:12.675Z,10.95
2023-04-20T04:13:40.223Z,12.02
2023-04-20T04:16:09.503Z,11.35
2023-04-20T04:18:37.047Z,9.95
2023-04-20T04:21:10.468Z,11.45
2023-04-20T04:23:42.297Z,11.50
2023-04-20T04:26:24.601Z,10.05
2023-04-20T04:28:53.381Z,9.93
2023-04-20T04:31:22.058Z,10.25
2023-04-20T04:33:50.150Z,10.65
2023-04-20T04:36:44.146Z,10.98
2023-04-20T04:39:14.283Z,11.57
2023-04-20T04:41:48.789Z,11.35
2023-04-20T04:44:28.756Z,11.00
2023-04-20T04:46:56.539Z,11.10
2023-04-20T04:49:26.768Z,10.63
2023-04-20T04:51:54.223Z,10.90
2023-04-20T04:54:21.646Z,10.82
2023-04-20T04:56:49.075Z,10.35
2023-04-20T04:59:16.786Z,11.82
2023-04-20T05:01:44.261Z,11.15
2023-04-20T05:04:11.906Z,11.63
2023-04-20T05:06:39.435Z,11.00
2023-04-20T05:09:06.823Z,10.88
2023-04-20T05:11:34.232Z,10.43
2023-04-20T05:14:02.693Z,11.20
2023-04-20T05:16:30.205Z,10.77
2023-04-20T05:18:57.792Z,10.45
2023-04-20T05:21:25.283Z,18.23
2023-04-20T05:23:52.751Z,16.25
2023-04-20T05:26:20.252Z,10.65
2023-04-20T05:28:47.629Z,10.77
2023-04-20T05:31:15.066Z,9.88
2023-04-20T05:33:43.365Z,9.48
2023-04-20T05:36:10.912Z,10.32
2023-04-20T05:38:38.809Z,9.80
2023-04-20T05:41:06.604Z,10.55
2023-04-20T05:43:33.979Z,10.27
2023-04-20T05:46:01.458Z,9.50
2023-04-20T05:48:30.302Z,8.75
2023-04-20T05:50:58.491Z,9.02
2023-04-20T05:53:26.230Z,9.70
2023-04-20T05:55:53.689Z,10.00
2023-04-20T05:58:21.202Z,8.77
2023-04-20T06:00:51.004Z,9.57
2023-04-20T06:03:18.777Z,9.32
2023-04-20T06:05:46.290Z,8.27
2023-04-20T06:08:13.833Z,8.43
2023-04-20T06:10:41.382Z,8.57
2023-04-20T06:13:08.770Z,8.05
2023-04-20T06:15:36.669Z,7.75
2023-04-20T06:18:04.384Z,7.97
2023-04-20T06:20:31.982Z,7.72
2023-04-20T06:22:59.475Z,8.63
2023-04-20T06:25:26.857Z,7.30
2023-04-20T06:27:54.230Z,7.60
2023-04-20T06:30:21.722Z,7.18
2023-04-20T06:32:49.162Z,7.88
2023-04-20T06:35:16.624Z,7.80
2023-04-20T06:37:44.039Z,8.23
2023-04-20T06:40:12.088Z,7.70
2023-04-20T06:42:40.249Z,7.32
2023-04-20T06:45:08.905Z,6.55
2023-04-20T06:47:36.938Z,6.43
2023-04-20T06:50:10.250Z,7.03
2023-04-20T06:52:39.535Z,6.80
2023-04-20T06:55:07.795Z,7.20
2023-04-20T06:57:35.476Z,7.55
2023-04-20T07:00:03.002Z,7.55
2023-04-20T07:02:30.473Z,6.55
2023-04-20T07:05:02.600Z,7.15
2023-04-20T07:07:30.110Z,7.57
2023-04-20T07:09:58.683Z,7.95
2023-04-20T07:12:26.094Z,7.22
2023-04-20T07:14:54.341Z,7.50
2023-04-20T07:17:21.960Z,6.70
2023-04-20T07:19:49.606Z,6.28
2023-04-20T07:22:22.310Z,6.65
2023-04-20T07:24:49.808Z,5.93
2023-04-20T07:27:17.619Z,4.95
2023-04-20T07:29:45.356Z,4.72
2023-04-20T07:32:12.874Z,4.88
2023-04-20T07:34:40.689Z,4.57
2023-04-20T07:37:08.210Z,4.50
2023-04-20T07:39:35.634Z,4.65
2023-04-20T07:42:04.299Z,4.72
2023-04-20T07:44:31.705Z,3.95
2023-04-20T07:46:59.155Z,3.97
2023-04-20T07:49:26.520Z,4.10
2023-04-20T07:51:56.875Z,4.35
2023-04-20T07:54:30.690Z,4.70
2023-04-20T07:56:58.416Z,3.92
2023-04-20T07:59:26.079Z,4.22
2023-04-20T08:01:56.248Z,4.43
2023-04-20T08:04:23.911Z,4.07
2023-04-20T08:06:51.567Z,4.40
2023-04-20T08:09:19.288Z,4.00
2023-04-20T08:11:47.346Z,3.42
2023-04-20T08:14:15.585Z,4.43
2023-04-20T08:16:44.079Z,4.15
2023-04-20T08:19:11.525Z,4.10
2023-04-20T08:21:42.919Z,4.13
2023-04-20T08:24:11.290Z,4.13
2023-04-20T08:26:39.201Z,4.00
2023-04-20T08:29:06.898Z,3.85
2023-04-20T08:31:34.463Z,3.92
2023-04-20T08:34:01.924Z,4.57
2023-04-20T08:36:29.365Z,4.30
2023-04-20T08:39:19.511Z,4.07
2023-04-20T08:41:48.039Z,3.38
2023-04-20T08:44:16.351Z,4.25
2023-04-20T08:46:47.854Z,3.83
2023-04-20T08:49:16.591Z,3.95
2023-04-20T08:51:45.402Z,3.53
2023-04-20T08:54:13.926Z,4.28
2023-04-20T08:56:44.251Z,3.47
2023-04-20T08:59:15.339Z,3.80
2023-04-20T09:01:44.266Z,4.35
2023-04-20T09:04:24.255Z,3.50
2023-04-20T09:06:54.013Z,3.30
2023-04-20T09:09:23.562Z,5.90
2023-04-20T09:12:06.956Z,3.95
2023-04-20T09:14:44.755Z,3.72
2023-04-20T09:17:14.716Z,3.90
2023-04-20T09:19:45.425Z,3.67
2023-04-20T09:22:13.541Z,3.70
2023-04-20T09:24:42.326Z,4.00
2023-04-20T09:27:22.700Z,5.28
2023-04-20T09:30:01.546Z,4.18
2023-04-20T09:32:29.418Z,4.35
2023-04-20T09:34:57.424Z,4.63
2023-04-20T09:37:25.641Z,5.28
2023-04-20T09:39:58.116Z,4.03
2023-04-20T09:42:27.992Z,4.30
2023-04-20T09:44:57.355Z,4.85
2023-04-20T09:47:26.678Z,4.68
2023-04-20T09:49:56.192Z,4.80
2023-04-20T09:52:26.417Z,4.88
2023-04-20T09:54:54.896Z,4.28
2023-04-20T09:57:23.178Z,4.90
2023-04-20T09:59:53.311Z,4.85
2023-04-20T10:02:21.109Z,4.68
2023-04-20T10:04:59.017Z,4.88
2023-04-20T10:07:28.138Z,4.88
2023-04-20T10:10:09.961Z,5.53
2023-04-20T10:12:53.602Z,5.47
2023-04-20T10:15:24.964Z,5.53
2023-04-20T10:17:53.376Z,5.72
2023-04-20T10:20:28.447Z,6.07
2023-04-20T10:23:11.360Z,6.65
2023-04-20T10:25:39.947Z,7.15
2023-04-20T10:28:10.557Z,6.72
2023-04-20T10:30:49.766Z,6.90
2023-04-20T10:33:18.142Z,6.93
2023-04-20T10:35:45.982Z,7.57
2023-04-20T10:38:13.892Z,7.53
2023-04-20T10:40:41.284Z,7.13
2023-04-20T10:43:22.314Z,7.40
2023-04-20T10:45:50.474Z,7.32
2023-04-20T10:48:18.411Z,8.55
2023-04-20T10:50:46.194Z,7.55
2023-04-20T10:53:22.052Z,7.63
2023-04-20T10:56:00.165Z,8.30
2023-04-20T10:58:27.886Z,8.52
2023-04-20T11:00:59.966Z,9.23
2023-04-20T11:03:37.154Z,9.20
2023-04-20T11:06:04.801Z,9.57
2023-04-20T11:08:39.282Z,10.82
2023-04-20T11:11:22.173Z,11.10
2023-04-20T11:13:49.639Z,10.73
2023-04-20T11:16:18.602Z,12.27
2023-04-20T11:18:54.114Z,12.02
2023-04-20T11:21:23.351Z,11.68
2023-04-20T11:23:51.018Z,12.73
2023-04-20T11:26:18.847Z,12.98
2023-04-20T11:28:56.706Z,15.43
2023-04-20T11:31:24.372Z,14.30
2023-04-20T11:33:52.043Z,15.57
2023-04-20T11:36:24.489Z,13.05
2023-04-20T11:41:19.616Z,14.07
2023-04-20T11:43:47.173Z,15.13
2023-04-20T11:46:20.199Z,16.63
2023-04-20T11:48:49.424Z,16.20
2023-04-20T11:51:17.049Z,17.05
2023-04-20T11:53:44.766Z,14.85
2023-04-20T11:56:12.160Z,14.07
2023-04-20T11:58:40.698Z,13.25
2023-04-20T12:01:08.085Z,12.57
2023-04-20T12:03:35.602Z,12.57
2023-04-20T12:06:03.228Z,12.50
2023-04-20T12:08:31.740Z,12.40
2023-04-20T12:10:59.143Z,11.63
2023-04-20T12:13:26.578Z,10.77
2023-04-20T12:15:54.184Z,11.32
2023-04-20T12:18:21.768Z,12.18
2023-04-20T12:20:50.266Z,12.93
2023-04-20T12:23:17.661Z,11.95
2023-04-20T12:25:45.122Z,11.68
2023-04-20T12:28:14.434Z,12.30
2023-04-20T12:30:41.949Z,11.60
2023-04-20T12:33:09.458Z,11.50
2023-04-20T12:35:36.966Z,11.88
2023-04-20T12:38:04.422Z,12.35
2023-04-20T12:40:31.864Z,10.68
2023-04-20T12:42:59.693Z,11.18
2023-04-20T12:45:27.185Z,10.38
2023-04-20T12:47:56.756Z,10.65
2023-04-20T12:50:25.786Z,9.70
2023-04-20T12:52:56.349Z,9.50
2023-04-20T12:55:24.298Z,9.98
2023-04-20T12:57:51.811Z,9.35
2023-04-20T13:00:19.636Z,9.25
2023-04-20T13:02:47.269Z,8.82
2023-04-20T13:05:15.995Z,9.85
2023-04-20T13:07:43.552Z,9.73
2023-04-20T13:10:11.280Z,9.35
2023-04-20T13:12:38.838Z,9.35
2023-04-20T13:15:11.119Z,9.15
2023-04-20T13:17:38.776Z,8.50
2023-04-20T13:20:07.841Z,7.97
2023-04-20T13:22:38.926Z,7.95
2023-04-20T13:25:12.016Z,9.13
2023-04-20T13:27:39.435Z,8.93
2023-04-20T13:30:07.834Z,8.27
2023-04-20T13:32:36.979Z,8.13
2023-04-20T13:35:06.814Z,7.80
2023-04-20T13:37:34.285Z,9.38
2023-04-20T13:40:01.739Z,8.20
2023-04-20T13:42:29.080Z,8.80
2023-04-20T13:44:56.521Z,8.70
2023-04-20T13:47:24.355Z,8.27
2023-04-20T13:49:51.777Z,7.32
2023-04-20T13:52:19.372Z,8.80
2023-04-20T13:54:46.798Z,7.50
2023-04-20T13:57:14.177Z,8.93
2023-04-20T13:59:41.980Z,8.13
2023-04-20T14:02:09.592Z,8.63
2023-04-20T14:04:37.205Z,8.23
2023-04-20T14:07:04.591Z,8.25
2023-04-20T14:09:32.031Z,9.77
2023-04-20T14:11:59.695Z,8.65
2023-04-20T14:14:27.083Z,8.07
2023-04-20T14:16:54.575Z,8.95
2023-04-20T14:19:22.053Z,8.27
2023-04-20T14:21:50.040Z,9.45
2023-04-20T14:24:20.111Z,9.35
2023-04-20T14:26:47.724Z,10.27
2023-04-20T14:29:15.754Z,8.00
2023-04-20T14:31:44.850Z,10.82
2023-04-20T14:34:13.175Z,9.32
2023-04-20T14:36:40.821Z,9.88
2023-04-20T14:39:08.250Z,8.65
2023-04-20T14:41:36.011Z,8.57
2023-04-20T14:44:04.000Z,8.68
2023-04-20T14:46:31.420Z,8.30
2023-04-20T14:48:58.917Z,10.82
2023-04-20T14:51:27.107Z,8.10
2023-04-20T14:53:54.526Z,8.02
2023-04-20T14:56:21.890Z,9.30
2023-04-20T14:58:49.274Z,12.15
2023-04-20T15:01:17.202Z,9.50
2023-04-20T15:03:44.886Z,9.05
2023-04-20T15:06:12.569Z,8.88
2023-04-20T15:08:40.004Z,12.15
2023-04-20T15:11:08.311Z,8.80
2023-04-20T15:13:35.726Z,12.80
2023-04-20T15:16:03.196Z,10.18
2023-04-20T15:18:32.181Z,9.15
2023-04-20T15:20:59.595Z,10.05
2023-04-20T15:23:27.023Z,9.95
2023-04-20T15:25:54.428Z,8.65
2023-04-20T15:28:21.887Z,10.35
2023-04-20T15:30:49.302Z,9.02
2023-04-20T15:33:17.577Z,8.65
2023-04-20T15:35:44.978Z,9.70
2023-04-20T15:38:12.334Z,9.15
2023-04-20T15:40:39.796Z,9.23
2023-04-20T15:43:07.255Z,8.35
2023-04-20T15:45:35.005Z,8.05
2023-04-20T15:48:02.539Z,8.05
2023-04-20T15:50:33.273Z,8.23
2023-04-20T15:53:00.849Z,9.30
2023-04-20T15:55:29.036Z,8.95
2023-04-20T15:58:00.296Z,8.13
2023-04-20T16:00:27.765Z,8.57
2023-04-20T16:02:55.407Z,8.25
2023-04-20T16:05:23.866Z,7.45
2023-04-20T16:07:51.302Z,7.63
2023-04-20T16:10:18.859Z,6.75
2023-04-20T16:12:46.483Z,7.88
2023-04-20T16:15:13.860Z,6.40
2023-04-20T16:17:41.262Z,6.78
2023-04-20T16:20:09.238Z,6.55
2023-04-20T16:22:36.846Z,6.22
2023-04-20T16:25:04.689Z,6.45
2023-04-20T16:27:32.966Z,6.20
2023-04-20T16:30:00.357Z,5.43
2023-04-20T16:32:28.160Z,5.30
2023-04-20T16:34:55.815Z,5.05
2023-04-20T16:37:24.607Z,5.00
2023-04-20T16:39:51.934Z,4.90
2023-04-20T16:42:19.345Z,4.18
2023-04-20T16:44:46.702Z,5.00
2023-04-20T16:47:14.098Z,4.80
2023-04-20T16:49:41.489Z,4.70
2023-04-20T16:52:10.529Z,4.20
2023-04-20T16:54:37.905Z,3.80
2023-04-20T16:57:05.772Z,4.28
2023-04-20T16:59:33.179Z,4.32
2023-04-20T17:02:00.753Z,4.18
2023-04-20T17:04:28.365Z,4.93
2023-04-20T17:06:55.814Z,5.25
2023-04-20T17:09:23.660Z,6.53
2023-04-20T17:11:51.097Z,4.95
2023-04-20T17:14:18.687Z,5.25
2023-04-20T17:16:46.305Z,5.60
2023-04-20T17:19:13.846Z,4.90
2023-04-20T17:21:41.302Z,6.10
2023-04-20T17:24:08.708Z,6.00
2023-04-20T17:26:36.120Z,4.80
2023-04-20T17:29:04.715Z,4.63
2023-04-20T17:31:34.748Z,4.85
2023-04-20T17:34:03.346Z,4.88
2023-04-20T17:36:31.890Z,4.97
2023-04-20T17:38:59.329Z,4.85
2023-04-20T17:41:26.748Z,5.30
2023-04-20T17:43:54.183Z,5.55
2023-04-20T17:46:22.926Z,5.63
2023-04-20T17:48:50.343Z,5.13
2023-04-20T17:51:17.724Z,5.13
2023-04-20T17:53:45.127Z,5.82
2023-04-20T17:56:12.705Z,6.13
2023-04-20T17:58:40.116Z,6.07
2023-04-20T18:01:07.527Z,6.50
2023-04-20T18:03:35.307Z,6.57
2023-04-20T18:06:03.352Z,6.38
2023-04-20T18:08:30.835Z,5.30
2023-04-20T18:10:58.220Z,6.43
2023-04-20T18:13:25.792Z,6.38
2023-04-20T18:15:53.199Z,7.30
2023-04-20T18:18:21.677Z,8.75
2023-04-20T18:20:49.254Z,9.10
2023-04-20T18:23:17.328Z,7.65
2023-04-20T18:25:45.105Z,7.75
2023-04-20T18:28:12.511Z,7.57
2023-04-20T18:30:39.968Z,7.90
2023-04-20T18:33:07.423Z,8.68
2023-04-20T18:35:34.984Z,10.10
2023-04-20T18:38:02.999Z,9.43
2023-04-20T18:40:30.438Z,8.73
2023-04-20T18:42:57.785Z,8.88
2023-04-20T18:45:25.252Z,9.00
2023-04-20T18:47:52.698Z,9.73
2023-04-20T18:50:20.249Z,9.60
2023-04-20T18:52:47.890Z,9.18
2023-04-20T18:55:15.304Z,9.55
2023-04-20T18:57:42.698Z,8.75
2023-04-20T19:00:10.535Z,9.55
2023-04-20T19:02:38.082Z,8.73
2023-04-20T19:05:06.154Z,8.88
2023-04-20T19:07:33.536Z,7.97
2023-04-20T19:10:01.153Z,7.32
2023-04-20T19:12:28.514Z,7.47
2023-04-20T19:14:55.963Z,7.90
2023-04-20T19:17:23.300Z,6.85
2023-04-20T19:19:51.087Z,7.20
2023-04-20T19:22:18.794Z,7.80
2023-04-20T19:24:46.279Z,7.80
2023-04-20T19:27:14.215Z,7.10
2023-04-20T19:29:41.716Z,7.55
2023-04-20T19:32:09.127Z,7.22
2023-04-20T19:34:36.645Z,6.78
2023-04-20T19:37:04.139Z,7.25
2023-04-20T19:39:36.575Z,7.53
2023-04-20T19:42:04.084Z,6.45
2023-04-20T19:44:31.671Z,8.13
2023-04-20T19:46:59.146Z,7.32
2023-04-20T19:49:26.583Z,7.35
2023-04-20T19:51:54.255Z,7.47
2023-04-20T19:54:22.416Z,7.20
2023-04-20T19:56:49.836Z,7.55
2023-04-20T19:59:17.599Z,7.03
2023-04-20T20:01:45.571Z,7.53
2023-04-20T20:04:13.166Z,6.93
2023-04-20T20:06:40.696Z,6.53
2023-04-20T20:09:08.546Z,7.80
2023-04-20T20:11:35.977Z,8.13
2023-04-20T20:14:03.374Z,7.88
2023-04-20T20:16:31.051Z,7.95
2023-04-20T20:18:59.855Z,7.63
2023-04-20T20:21:29.484Z,7.18
2023-04-20T20:23:56.931Z,7.03
2023-04-20T20:26:24.353Z,6.38
2023-04-20T20:28:51.818Z,6.43
2023-04-20T20:31:19.303Z,7.18
2023-04-20T20:33:46.813Z,7.63
2023-04-20T20:36:18.011Z,7.85
2023-04-20T20:41:14.762Z,8.45
2023-04-20T20:43:42.551Z,8.30
2023-04-20T20:46:10.183Z,8.73
2023-04-20T20:48:37.682Z,7.63
2023-04-20T20:51:05.077Z,8.80
2023-04-20T20:53:32.661Z,9.40
2023-04-20T20:56:00.213Z,6.93
2023-04-20T20:58:27.651Z,7.68
2023-04-20T21:00:55.082Z,7.70
2023-04-20T21:03:22.708Z,7.78
2023-04-20T21:05:50.690Z,8.93
2023-04-20T21:08:18.090Z,7.38
2023-04-20T21:10:45.566Z,7.85
2023-04-20T21:13:13.022Z,6.57
2023-04-20T21:15:41.148Z,7.03
2023-04-20T21:18:08.612Z,7.40
2023-04-20T21:20:36.270Z,7.53
2023-04-20T21:23:03.691Z,7.32
2023-04-20T21:25:31.100Z,8.48
2023-04-20T21:27:58.564Z,6.82
2023-04-20T21:30:26.845Z,8.25
2023-04-20T21:32:54.445Z,7.00
2023-04-20T21:35:22.136Z,6.45
2023-04-20T21:37:49.522Z,7.85
2023-04-20T21:40:16.960Z,7.20
2023-04-20T21:42:44.383Z,6.60
2023-04-20T21:45:12.087Z,7.00
2023-04-20T21:47:39.530Z,6.78
2023-04-20T21:50:07.232Z,7.72
2023-04-20T21:52:34.743Z,7.15
2023-04-20T21:55:02.202Z,8.70
2023-04-20T21:57:29.707Z,6.78
2023-04-20T21:59:57.072Z,6.90
2023-04-20T22:02:24.674Z,7.03
2023-04-20T22:04:52.510Z,7.30
2023-04-20T22:07:20.883Z,7.18
2023-04-20T22:09:48.366Z,5.90
2023-04-20T22:12:18.031Z,7.05
2023-04-20T22:14:47.116Z,5.80
2023-04-20T22:17:14.579Z,6.10
2023-04-20T22:19:42.248Z,5.93
2023-04-20T22:22:09.676Z,5.88
2023-04-20T22:24:37.075Z,5.45
2023-04-20T22:27:04.499Z,5.80
2023-04-20T22:29:31.911Z,5.90
2023-04-20T22:31:59.312Z,5.25
2023-04-20T22:34:26.682Z,5.85
2023-04-20T22:36:54.503Z,4.95
2023-04-20T22:39:21.911Z,5.18
2023-04-20T22:41:49.338Z,5.40
2023-04-20T22:44:16.710Z,5.13
2023-04-20T22:46:44.153Z,4.85
2023-04-20T22:49:11.616Z,4.43
2023-04-20T22:51:38.989Z,4.78
2023-04-20T22:54:06.522Z,5.15
2023-04-20T22:56:35.150Z,4.78
2023-04-20T22:59:02.592Z,4.38
2023-04-20T23:01:30.031Z,5.13
2023-04-20T23:03:57.562Z,4.68
2023-04-20T23:06:25.181Z,4.05
2023-04-20T23:08:52.645Z,4.43
2023-04-20T23:11:20.854Z,4.20
2023-04-20T23:13:49.953Z,4.30
2023-04-20T23:16:18.490Z,3.78
2023-04-20T23:18:45.907Z,3.95
2023-04-20T23:21:13.399Z,3.70
2023-04-20T23:23:40.787Z,4.10
2023-04-20T23:26:08.252Z,3.95
2023-04-20T23:28:35.804Z,4.30
2023-04-20T23:31:03.314Z,4.03
2023-04-20T23:33:30.827Z,4.20
2023-04-20T23:35:59.761Z,3.92
2023-04-20T23:38:27.139Z,4.05
2023-04-20T23:40:54.582Z,3.78
2023-04-20T23:43:21.960Z,3.65
2023-04-20T23:45:49.475Z,3.83
2023-04-20T23:48:17.752Z,3.63
2023-04-20T23:50:45.217Z,3.95
2023-04-20T23:53:12.789Z,3.50
2023-04-20T23:55:40.232Z,3.85
2023-04-20T23:58:07.686Z,3.65
